sensor_id;sensor_type;location;lat;lon;timestamp;pressure;altitude;pressure_sealevel;temperature;humidity
30081;BME280;16902;50.816;12.828;2024-03-08T00:02:53;98197.00;;;-2.75;100.00
30081;BME280;16902;50.816;12.828;2024-03-08T00:07:56;98187.63;;;-2.75;100.00
30081;BME280;16902;50.816;12.828;2024-03-08T00:12:58;98194.53;;;-2.77;100.00
30081;BME280;16902;50.816;12.828;2024-03-08T00:17:59;98189.63;;;-2.80;100.00
30081;BME280;16902;50.816;12.828;2024-03-08T00:23:02;98183.66;;;-2.95;100.00
30081;BME280;16902;50.816;12.828;2024-03-08T00:28:04;98184.72;;;-2.99;100.00
30081;BME280;16902;50.816;12.828;2024-03-08T00:33:06;98180.81;;;-3.04;100.00
30081;BME280;16902;50.816;12.828;2024-03-08T00:38:08;98186.72;;;-3.04;100.00
30081;BME280;16902;50.816;12.828;2024-03-08T00:43:10;98175.50;;;-3.01;100.00
30081;BME280;16902;50.816;12.828;2024-03-08T00:48:12;98174.03;;;-3.05;100.00
30081;BME280;16902;50.816;12.828;2024-03-08T00:53:14;98178.31;;;-3.06;100.00
30081;BME280;16902;50.816;12.828;2024-03-08T00:58:16;98175.28;;;-3.13;100.00
30081;BME280;16902;50.816;12.828;2024-03-08T01:03:18;98169.69;;;-3.19;100.00
30081;BME280;16902;50.816;12.828;2024-03-08T01:08:19;98163.97;;;-3.23;100.00
30081;BME280;16902;50.816;12.828;2024-03-08T01:13:21;98153.13;;;-3.26;100.00
30081;BME280;16902;50.816;12.828;2024-03-08T01:18:23;98152.22;;;-3.25;100.00
30081;BME280;16902;50.816;12.828;2024-03-08T01:23:25;98142.22;;;-3.28;100.00
30081;BME280;16902;50.816;12.828;2024-03-08T01:28:28;98138.75;;;-3.27;100.00
30081;BME280;16902;50.816;12.828;2024-03-08T01:33:30;98136.22;;;-3.27;100.00
30081;BME280;16902;50.816;12.828;2024-03-08T01:38:33;98129.50;;;-3.28;100.00
30081;BME280;16902;50.816;12.828;2024-03-08T01:43:35;98122.75;;;-3.29;100.00
30081;BME280;16902;50.816;12.828;2024-03-08T01:48:37;98119.81;;;-3.38;100.00
30081;BME280;16902;50.816;12.828;2024-03-08T01:53:39;98105.34;;;-3.37;100.00
30081;BME280;16902;50.816;12.828;2024-03-08T01:58:42;98095.00;;;-3.34;100.00
30081;BME280;16902;50.816;12.828;2024-03-08T02:03:45;98086.03;;;-3.25;100.00
30081;BME280;16902;50.816;12.828;2024-03-08T02:08:48;98099.75;;;-3.28;100.00
30081;BME280;16902;50.816;12.828;2024-03-08T02:13:50;98081.19;;;-3.30;100.00
30081;BME280;16902;50.816;12.828;2024-03-08T02:18:52;98084.50;;;-3.28;100.00
30081;BME280;16902;50.816;12.828;2024-03-08T02:23:54;98083.81;;;-3.31;100.00
30081;BME280;16902;50.816;12.828;2024-03-08T02:28:56;98079.72;;;-3.34;100.00
30081;BME280;16902;50.816;12.828;2024-03-08T02:33:58;98078.34;;;-3.40;100.00
30081;BME280;16902;50.816;12.828;2024-03-08T02:39:02;98082.19;;;-3.48;100.00
30081;BME280;16902;50.816;12.828;2024-03-08T02:44:04;98069.81;;;-3.54;100.00
30081;BME280;16902;50.816;12.828;2024-03-08T02:49:06;98073.38;;;-3.57;100.00
30081;BME280;16902;50.816;12.828;2024-03-08T02:54:09;98071.88;;;-3.61;100.00
30081;BME280;16902;50.816;12.828;2024-03-08T02:59:12;98069.50;;;-3.64;100.00
30081;BME280;16902;50.816;12.828;2024-03-08T03:04:14;98065.22;;;-3.64;100.00
30081;BME280;16902;50.816;12.828;2024-03-08T03:09:16;98067.06;;;-3.66;100.00
30081;BME280;16902;50.816;12.828;2024-03-08T03:14:25;98063.75;;;-3.68;100.00
30081;BME280;16902;50.816;12.828;2024-03-08T03:19:28;98055.97;;;-3.65;100.00
30081;BME280;16902;50.816;12.828;2024-03-08T03:24:32;98055.31;;;-3.68;100.00
30081;BME280;16902;50.816;12.828;2024-03-08T03:29:34;98057.84;;;-3.68;100.00
30081;BME280;16902;50.816;12.828;2024-03-08T03:34:36;98048.50;;;-3.68;100.00
30081;BME280;16902;50.816;12.828;2024-03-08T03:39:40;98052.03;;;-3.70;100.00
30081;BME280;16902;50.816;12.828;2024-03-08T03:44:50;98049.50;;;-3.70;100.00
30081;BME280;16902;50.816;12.828;2024-03-08T03:49:53;98051.47;;;-3.75;100.00
30081;BME280;16902;50.816;12.828;2024-03-08T03:54:56;98053.91;;;-3.74;100.00
30081;BME280;16902;50.816;12.828;2024-03-08T03:59:58;98052.94;;;-3.71;100.00
30081;BME280;16902;50.816;12.828;2024-03-08T04:05:00;98044.50;;;-3.72;100.00
30081;BME280;16902;50.816;12.828;2024-03-08T04:10:03;98037.94;;;-3.76;100.00
30081;BME280;16902;50.816;12.828;2024-03-08T04:15:05;98034.88;;;-3.67;100.00
30081;BME280;16902;50.816;12.828;2024-03-08T04:20:10;98034.28;;;-3.56;100.00
30081;BME280;16902;50.816;12.828;2024-03-08T04:25:13;98024.94;;;-3.55;100.00
30081;BME280;16902;50.816;12.828;2024-03-08T04:30:15;98029.44;;;-3.60;100.00
30081;BME280;16902;50.816;12.828;2024-03-08T04:35:17;98029.81;;;-3.67;100.00
30081;BME280;16902;50.816;12.828;2024-03-08T04:40:22;98019.13;;;-3.73;100.00
30081;BME280;16902;50.816;12.828;2024-03-08T04:45:23;98015.38;;;-3.82;100.00
30081;BME280;16902;50.816;12.828;2024-03-08T04:50:27;98018.66;;;-3.96;100.00
30081;BME280;16902;50.816;12.828;2024-03-08T04:55:32;98013.75;;;-3.99;100.00
30081;BME280;16902;50.816;12.828;2024-03-08T05:00:34;98014.13;;;-4.06;100.00
30081;BME280;16902;50.816;12.828;2024-03-08T05:05:37;98008.81;;;-4.02;100.00
30081;BME280;16902;50.816;12.828;2024-03-08T05:10:38;98011.53;;;-4.05;100.00
30081;BME280;16902;50.816;12.828;2024-03-08T05:15:40;98009.06;;;-4.06;100.00
30081;BME280;16902;50.816;12.828;2024-03-08T05:20:42;98004.22;;;-4.11;100.00
30081;BME280;16902;50.816;12.828;2024-03-08T05:25:44;98000.69;;;-4.08;100.00
30081;BME280;16902;50.816;12.828;2024-03-08T05:30:46;97999.63;;;-4.04;100.00
30081;BME280;16902;50.816;12.828;2024-03-08T05:35:48;97997.25;;;-4.07;100.00
30081;BME280;16902;50.816;12.828;2024-03-08T05:40:50;97996.59;;;-4.11;100.00
30081;BME280;16902;50.816;12.828;2024-03-08T05:45:53;97999.63;;;-4.04;100.00
30081;BME280;16902;50.816;12.828;2024-03-08T05:50:54;97996.09;;;-4.02;100.00
30081;BME280;16902;50.816;12.828;2024-03-08T05:55:58;97989.94;;;-3.98;100.00
30081;BME280;16902;50.816;12.828;2024-03-08T06:01:00;97993.72;;;-3.89;100.00
30081;BME280;16902;50.816;12.828;2024-03-08T06:06:03;97999.94;;;-3.79;100.00
30081;BME280;16902;50.816;12.828;2024-03-08T06:11:05;97992.63;;;-3.69;100.00
30081;BME280;16902;50.816;12.828;2024-03-08T06:16:10;97989.66;;;-3.62;100.00
30081;BME280;16902;50.816;12.828;2024-03-08T06:21:12;97987.22;;;-3.49;100.00
30081;BME280;16902;50.816;12.828;2024-03-08T06:26:14;97983.44;;;-3.42;100.00
30081;BME280;16902;50.816;12.828;2024-03-08T06:31:16;97987.47;;;-3.23;100.00
30081;BME280;16902;50.816;12.828;2024-03-08T06:36:18;97989.59;;;-3.01;100.00
30081;BME280;16902;50.816;12.828;2024-03-08T06:41:23;97984.41;;;-2.86;100.00
30081;BME280;16902;50.816;12.828;2024-03-08T06:46:25;97977.69;;;-2.72;100.00
30081;BME280;16902;50.816;12.828;2024-03-08T06:51:27;97983.84;;;-2.48;100.00
30081;BME280;16902;50.816;12.828;2024-03-08T06:56:29;97982.56;;;-2.26;100.00
30081;BME280;16902;50.816;12.828;2024-03-08T07:01:31;97980.59;;;-2.09;100.00
30081;BME280;16902;50.816;12.828;2024-03-08T07:06:33;97977.63;;;-1.88;100.00
30081;BME280;16902;50.816;12.828;2024-03-08T07:11:35;97973.81;;;-1.56;100.00
30081;BME280;16902;50.816;12.828;2024-03-08T07:16:38;97961.13;;;-1.17;100.00
30081;BME280;16902;50.816;12.828;2024-03-08T07:21:41;97962.47;;;-0.86;100.00
30081;BME280;16902;50.816;12.828;2024-03-08T07:26:44;97960.56;;;-0.46;100.00
30081;BME280;16902;50.816;12.828;2024-03-08T07:31:45;97969.06;;;-0.09;100.00
30081;BME280;16902;50.816;12.828;2024-03-08T07:37:03;97966.66;;;0.25;100.00
30081;BME280;16902;50.816;12.828;2024-03-08T07:42:08;97957.34;;;0.59;100.00
30081;BME280;16902;50.816;12.828;2024-03-08T07:47:10;97956.47;;;0.83;100.00
30081;BME280;16902;50.816;12.828;2024-03-08T07:52:12;97951.88;;;1.21;100.00
30081;BME280;16902;50.816;12.828;2024-03-08T07:57:17;97957.78;;;1.44;100.00
30081;BME280;16902;50.816;12.828;2024-03-08T08:02:19;97955.22;;;1.67;100.00
30081;BME280;16902;50.816;12.828;2024-03-08T08:07:21;97955.53;;;2.17;100.00
30081;BME280;16902;50.816;12.828;2024-03-08T08:12:24;97950.34;;;2.39;100.00
30081;BME280;16902;50.816;12.828;2024-03-08T08:17:26;97948.22;;;2.44;100.00
30081;BME280;16902;50.816;12.828;2024-03-08T08:22:28;97948.22;;;2.65;100.00
30081;BME280;16902;50.816;12.828;2024-03-08T08:27:30;97937.84;;;2.97;100.00
30081;BME280;16902;50.816;12.828;2024-03-08T08:32:32;97933.34;;;2.90;100.00
30081;BME280;16902;50.816;12.828;2024-03-08T08:37:35;97928.38;;;3.28;100.00
30081;BME280;16902;50.816;12.828;2024-03-08T08:42:40;97925.03;;;3.38;100.00
30081;BME280;16902;50.816;12.828;2024-03-08T08:47:43;97927.13;;;3.53;100.00
30081;BME280;16902;50.816;12.828;2024-03-08T08:52:47;97917.72;;;3.93;100.00
30081;BME280;16902;50.816;12.828;2024-03-08T08:57:49;97923.81;;;3.92;100.00
30081;BME280;16902;50.816;12.828;2024-03-08T09:02:52;97917.44;;;3.96;100.00
30081;BME280;16902;50.816;12.828;2024-03-08T09:07:56;97920.72;;;4.17;100.00
30081;BME280;16902;50.816;12.828;2024-03-08T09:12:58;97909.06;;;4.32;100.00
30081;BME280;16902;50.816;12.828;2024-03-08T09:18:01;97905.34;;;4.54;100.00
30081;BME280;16902;50.816;12.828;2024-03-08T09:23:04;97909.69;;;4.54;100.00
30081;BME280;16902;50.816;12.828;2024-03-08T09:28:05;97896.38;;;4.58;100.00
30081;BME280;16902;50.816;12.828;2024-03-08T09:33:07;97898.53;;;5.20;100.00
30081;BME280;16902;50.816;12.828;2024-03-08T09:38:09;97891.34;;;4.76;100.00
30081;BME280;16902;50.816;12.828;2024-03-08T09:43:14;97888.59;;;5.70;100.00
30081;BME280;16902;50.816;12.828;2024-03-08T09:48:17;97889.03;;;5.93;100.00
30081;BME280;16902;50.816;12.828;2024-03-08T09:53:20;97882.69;;;5.60;100.00
30081;BME280;16902;50.816;12.828;2024-03-08T09:58:24;97871.31;;;5.98;100.00
30081;BME280;16902;50.816;12.828;2024-03-08T10:03:29;97860.25;;;5.43;100.00
30081;BME280;16902;50.816;12.828;2024-03-08T10:08:31;97853.09;;;6.00;100.00
30081;BME280;16902;50.816;12.828;2024-03-08T10:13:33;97850.03;;;6.04;100.00
30081;BME280;16902;50.816;12.828;2024-03-08T10:18:35;97846.66;;;6.22;100.00
30081;BME280;16902;50.816;12.828;2024-03-08T10:23:37;97837.59;;;6.00;100.00
30081;BME280;16902;50.816;12.828;2024-03-08T10:28:39;97836.44;;;6.64;100.00
30081;BME280;16902;50.816;12.828;2024-03-08T10:33:41;97838.25;;;7.06;100.00
30081;BME280;16902;50.816;12.828;2024-03-08T10:38:44;97828.88;;;7.05;100.00
30081;BME280;16902;50.816;12.828;2024-03-08T10:49:31;97823.84;;;7.45;100.00
30081;BME280;16902;50.816;12.828;2024-03-08T10:54:37;97825.69;;;7.69;100.00
30081;BME280;16902;50.816;12.828;2024-03-08T10:59:47;97819.78;;;7.43;100.00
30081;BME280;16902;50.816;12.828;2024-03-08T11:04:51;97816.13;;;7.86;100.00
30081;BME280;16902;50.816;12.828;2024-03-08T11:09:55;97819.72;;;7.93;100.00
30081;BME280;16902;50.816;12.828;2024-03-08T11:15:03;97807.19;;;9.10;100.00
30081;BME280;16902;50.816;12.828;2024-03-08T11:20:14;97792.06;;;10.36;100.00
30081;BME280;16902;50.816;12.828;2024-03-08T11:25:32;97790.09;;;10.53;100.00
30081;BME280;16902;50.816;12.828;2024-03-08T11:30:34;97793.06;;;10.50;100.00
30081;BME280;16902;50.816;12.828;2024-03-08T11:35:36;97781.16;;;11.57;100.00
30081;BME280;16902;50.816;12.828;2024-03-08T11:40:39;97772.25;;;10.79;100.00
30081;BME280;16902;50.816;12.828;2024-03-08T11:45:41;97766.44;;;11.14;100.00
30081;BME280;16902;50.816;12.828;2024-03-08T11:50:43;97761.81;;;12.09;100.00
30081;BME280;16902;50.816;12.828;2024-03-08T11:55:45;97753.81;;;13.22;100.00
30081;BME280;16902;50.816;12.828;2024-03-08T12:00:49;97741.91;;;14.91;100.00
30081;BME280;16902;50.816;12.828;2024-03-08T12:05:57;97741.34;;;16.59;100.00
30081;BME280;16902;50.816;12.828;2024-03-08T12:11:03;97730.53;;;14.33;100.00
30081;BME280;16902;50.816;12.828;2024-03-08T12:16:06;97729.94;;;14.11;100.00
30081;BME280;16902;50.816;12.828;2024-03-08T12:21:11;97735.34;;;12.82;100.00
30081;BME280;16902;50.816;12.828;2024-03-08T12:26:23;97728.22;;;13.17;100.00
30081;BME280;16902;50.816;12.828;2024-03-08T12:31:26;97722.59;;;13.20;100.00
30081;BME280;16902;50.816;12.828;2024-03-08T12:36:28;97716.41;;;12.80;100.00
30081;BME280;16902;50.816;12.828;2024-03-08T12:41:30;97704.97;;;13.35;100.00
30081;BME280;16902;50.816;12.828;2024-03-08T12:46:31;97694.13;;;12.84;100.00
30081;BME280;16902;50.816;12.828;2024-03-08T12:51:34;97686.03;;;13.33;100.00
30081;BME280;16902;50.816;12.828;2024-03-08T12:56:36;97684.25;;;14.00;100.00
30081;BME280;16902;50.816;12.828;2024-03-08T13:01:38;97676.06;;;14.68;100.00
30081;BME280;16902;50.816;12.828;2024-03-08T13:06:41;97675.38;;;13.28;100.00
30081;BME280;16902;50.816;12.828;2024-03-08T13:11:46;97658.06;;;14.13;100.00
30081;BME280;16902;50.816;12.828;2024-03-08T13:16:48;97661.44;;;13.01;100.00
30081;BME280;16902;50.816;12.828;2024-03-08T13:21:50;97651.13;;;12.86;100.00
30081;BME280;16902;50.816;12.828;2024-03-08T13:26:52;97651.69;;;12.27;100.00
30081;BME280;16902;50.816;12.828;2024-03-08T13:31:54;97640.81;;;12.65;100.00
30081;BME280;16902;50.816;12.828;2024-03-08T13:36:58;97637.59;;;11.87;100.00
30081;BME280;16902;50.816;12.828;2024-03-08T13:42:02;97637.81;;;12.68;100.00
30081;BME280;16902;50.816;12.828;2024-03-08T13:47:06;97637.28;;;12.93;100.00
30081;BME280;16902;50.816;12.828;2024-03-08T13:52:12;97628.53;;;12.52;100.00
30081;BME280;16902;50.816;12.828;2024-03-08T13:57:18;97621.22;;;11.72;100.00
30081;BME280;16902;50.816;12.828;2024-03-08T14:02:20;97619.03;;;12.45;100.00
30081;BME280;16902;50.816;12.828;2024-03-08T14:07:24;97607.25;;;10.87;100.00
30081;BME280;16902;50.816;12.828;2024-03-08T14:12:26;97599.03;;;10.33;100.00
30081;BME280;16902;50.816;12.828;2024-03-08T14:17:30;97599.22;;;10.01;100.00
30081;BME280;16902;50.816;12.828;2024-03-08T14:22:33;97594.91;;;10.96;100.00
30081;BME280;16902;50.816;12.828;2024-03-08T14:27:35;97600.53;;;11.42;100.00
30081;BME280;16902;50.816;12.828;2024-03-08T14:32:36;97588.69;;;10.39;100.00
30081;BME280;16902;50.816;12.828;2024-03-08T14:37:41;97593.75;;;9.82;100.00
30081;BME280;16902;50.816;12.828;2024-03-08T14:42:45;97581.34;;;9.39;100.00
30081;BME280;16902;50.816;12.828;2024-03-08T14:47:47;97596.69;;;8.57;100.00
30081;BME280;16902;50.816;12.828;2024-03-08T14:52:52;97585.97;;;8.21;100.00
30081;BME280;16902;50.816;12.828;2024-03-08T14:57:54;97585.84;;;8.14;100.00
30081;BME280;16902;50.816;12.828;2024-03-08T15:02:56;97578.34;;;7.72;100.00
30081;BME280;16902;50.816;12.828;2024-03-08T15:07:59;97569.16;;;7.61;100.00
30081;BME280;16902;50.816;12.828;2024-03-08T15:13:13;97575.59;;;7.73;100.00
30081;BME280;16902;50.816;12.828;2024-03-08T15:18:24;97571.13;;;7.59;100.00
30081;BME280;16902;50.816;12.828;2024-03-08T15:23:49;97564.97;;;7.52;100.00
30081;BME280;16902;50.816;12.828;2024-03-08T15:28:54;97558.97;;;7.52;100.00
30081;BME280;16902;50.816;12.828;2024-03-08T15:33:57;97553.16;;;7.41;100.00
30081;BME280;16902;50.816;12.828;2024-03-08T15:39:02;97552.84;;;7.28;100.00
30081;BME280;16902;50.816;12.828;2024-03-08T15:44:04;97543.66;;;7.17;100.00
30081;BME280;16902;50.816;12.828;2024-03-08T15:49:07;97537.84;;;6.99;100.00
30081;BME280;16902;50.816;12.828;2024-03-08T15:54:09;97536.22;;;6.74;100.00
30081;BME280;16902;50.816;12.828;2024-03-08T15:59:12;97535.72;;;6.70;100.00
30081;BME280;16902;50.816;12.828;2024-03-08T16:04:14;97527.63;;;6.49;100.00
30081;BME280;16902;50.816;12.828;2024-03-08T16:09:16;97527.28;;;6.35;100.00
30081;BME280;16902;50.816;12.828;2024-03-08T16:14:18;97512.06;;;6.32;100.00
30081;BME280;16902;50.816;12.828;2024-03-08T16:19:22;97517.38;;;6.23;100.00
30081;BME280;16902;50.816;12.828;2024-03-08T16:24:25;97516.53;;;6.06;100.00
30081;BME280;16902;50.816;12.828;2024-03-08T16:29:26;97506.66;;;6.01;100.00
30081;BME280;16902;50.816;12.828;2024-03-08T16:34:28;97498.06;;;5.92;100.00
30081;BME280;16902;50.816;12.828;2024-03-08T16:39:30;97502.22;;;5.85;100.00
30081;BME280;16902;50.816;12.828;2024-03-08T16:44:32;97498.00;;;5.76;100.00
30081;BME280;16902;50.816;12.828;2024-03-08T16:49:34;97494.69;;;5.58;100.00
30081;BME280;16902;50.816;12.828;2024-03-08T16:54:36;97487.56;;;5.52;100.00
30081;BME280;16902;50.816;12.828;2024-03-08T16:59:52;97490.59;;;5.47;100.00
30081;BME280;16902;50.816;12.828;2024-03-08T17:04:54;97481.53;;;5.43;100.00
30081;BME280;16902;50.816;12.828;2024-03-08T17:09:56;97482.75;;;5.23;100.00
30081;BME280;16902;50.816;12.828;2024-03-08T17:14:59;97477.72;;;4.95;100.00
30081;BME280;16902;50.816;12.828;2024-03-08T17:20:01;97472.50;;;4.87;100.00
30081;BME280;16902;50.816;12.828;2024-03-08T17:25:03;97473.25;;;4.79;100.00
30081;BME280;16902;50.816;12.828;2024-03-08T17:30:07;97467.00;;;4.64;100.00
30081;BME280;16902;50.816;12.828;2024-03-08T17:35:22;97460.84;;;4.57;100.00
30081;BME280;16902;50.816;12.828;2024-03-08T17:40:27;97461.75;;;4.74;100.00
30081;BME280;16902;50.816;12.828;2024-03-08T17:45:29;97464.28;;;4.66;100.00
30081;BME280;16902;50.816;12.828;2024-03-08T17:50:33;97455.69;;;4.57;100.00
30081;BME280;16902;50.816;12.828;2024-03-08T17:55:36;97459.59;;;4.43;100.00
30081;BME280;16902;50.816;12.828;2024-03-08T18:00:42;97450.59;;;4.29;100.00
30081;BME280;16902;50.816;12.828;2024-03-08T18:05:46;97452.75;;;4.16;100.00
30081;BME280;16902;50.816;12.828;2024-03-08T18:10:49;97450.81;;;3.82;100.00
30081;BME280;16902;50.816;12.828;2024-03-08T18:15:51;97450.53;;;3.58;100.00
30081;BME280;16902;50.816;12.828;2024-03-08T18:20:53;97438.81;;;3.46;100.00
30081;BME280;16902;50.816;12.828;2024-03-08T18:25:56;97436.81;;;3.40;100.00
30081;BME280;16902;50.816;12.828;2024-03-08T18:30:58;97432.47;;;3.40;100.00
30081;BME280;16902;50.816;12.828;2024-03-08T18:36:00;97428.31;;;3.57;100.00
30081;BME280;16902;50.816;12.828;2024-03-08T18:41:03;97425.97;;;3.36;100.00
30081;BME280;16902;50.816;12.828;2024-03-08T18:46:05;97430.13;;;3.47;100.00
30081;BME280;16902;50.816;12.828;2024-03-08T18:51:08;97421.22;;;3.69;100.00
30081;BME280;16902;50.816;12.828;2024-03-08T18:56:09;97413.94;;;4.00;100.00
30081;BME280;16902;50.816;12.828;2024-03-08T19:01:11;97414.03;;;3.90;100.00
30081;BME280;16902;50.816;12.828;2024-03-08T19:06:14;97405.13;;;3.84;100.00
30081;BME280;16902;50.816;12.828;2024-03-08T19:11:19;97408.28;;;3.78;100.00
30081;BME280;16902;50.816;12.828;2024-03-08T19:16:21;97411.00;;;3.95;100.00
30081;BME280;16902;50.816;12.828;2024-03-08T19:21:23;97404.25;;;3.94;100.00
30081;BME280;16902;50.816;12.828;2024-03-08T19:26:26;97412.13;;;3.92;100.00
30081;BME280;16902;50.816;12.828;2024-03-08T19:31:28;97414.47;;;4.03;100.00
30081;BME280;16902;50.816;12.828;2024-03-08T19:36:30;97405.34;;;4.09;100.00
30081;BME280;16902;50.816;12.828;2024-03-08T19:41:32;97397.34;;;4.12;100.00
30081;BME280;16902;50.816;12.828;2024-03-08T19:46:35;97405.06;;;4.12;100.00
30081;BME280;16902;50.816;12.828;2024-03-08T19:51:42;97403.06;;;4.06;100.00
30081;BME280;16902;50.816;12.828;2024-03-08T19:56:46;97393.59;;;4.06;100.00
30081;BME280;16902;50.816;12.828;2024-03-08T20:01:47;97390.56;;;3.93;100.00
30081;BME280;16902;50.816;12.828;2024-03-08T20:06:50;97375.78;;;3.77;100.00
30081;BME280;16902;50.816;12.828;2024-03-08T20:11:53;97376.44;;;3.79;100.00
30081;BME280;16902;50.816;12.828;2024-03-08T20:16:57;97366.19;;;3.70;100.00
30081;BME280;16902;50.816;12.828;2024-03-08T20:21:59;97379.41;;;3.57;100.00
30081;BME280;16902;50.816;12.828;2024-03-08T20:27:02;97366.16;;;3.52;100.00
30081;BME280;16902;50.816;12.828;2024-03-08T20:32:05;97364.75;;;3.40;100.00
30081;BME280;16902;50.816;12.828;2024-03-08T20:37:07;97371.28;;;3.34;100.00
30081;BME280;16902;50.816;12.828;2024-03-08T20:42:10;97369.31;;;3.18;100.00
30081;BME280;16902;50.816;12.828;2024-03-08T20:47:12;97361.91;;;3.15;100.00
30081;BME280;16902;50.816;12.828;2024-03-08T20:52:14;97367.34;;;3.12;100.00
30081;BME280;16902;50.816;12.828;2024-03-08T20:57:17;97369.41;;;2.99;100.00
30081;BME280;16902;50.816;12.828;2024-03-08T21:02:18;97362.13;;;2.94;100.00
30081;BME280;16902;50.816;12.828;2024-03-08T21:07:20;97350.03;;;2.77;100.00
30081;BME280;16902;50.816;12.828;2024-03-08T21:12:22;97340.25;;;2.90;100.00
30081;BME280;16902;50.816;12.828;2024-03-08T21:17:24;97339.66;;;2.96;100.00
30081;BME280;16902;50.816;12.828;2024-03-08T21:22:26;97327.00;;;2.75;100.00
30081;BME280;16902;50.816;12.828;2024-03-08T21:27:28;97326.31;;;2.83;100.00
30081;BME280;16902;50.816;12.828;2024-03-08T21:32:30;97310.25;;;2.81;100.00
30081;BME280;16902;50.816;12.828;2024-03-08T21:37:33;97310.81;;;2.65;100.00
30081;BME280;16902;50.816;12.828;2024-03-08T21:42:35;97292.13;;;2.73;100.00
30081;BME280;16902;50.816;12.828;2024-03-08T21:47:37;97287.31;;;2.60;100.00
30081;BME280;16902;50.816;12.828;2024-03-08T21:52:49;97277.44;;;2.55;100.00
30081;BME280;16902;50.816;12.828;2024-03-08T21:57:51;97277.88;;;2.51;100.00
30081;BME280;16902;50.816;12.828;2024-03-08T22:02:53;97280.03;;;2.55;100.00
30081;BME280;16902;50.816;12.828;2024-03-08T22:07:55;97278.03;;;2.49;100.00
30081;BME280;16902;50.816;12.828;2024-03-08T22:12:57;97279.59;;;2.60;100.00
30081;BME280;16902;50.816;12.828;2024-03-08T22:17:59;97279.94;;;2.47;100.00
30081;BME280;16902;50.816;12.828;2024-03-08T22:23:02;97273.53;;;2.51;100.00
30081;BME280;16902;50.816;12.828;2024-03-08T22:28:05;97281.56;;;2.39;100.00
30081;BME280;16902;50.816;12.828;2024-03-08T22:33:09;97283.88;;;2.32;100.00
30081;BME280;16902;50.816;12.828;2024-03-08T22:38:11;97269.00;;;2.36;100.00
30081;BME280;16902;50.816;12.828;2024-03-08T22:43:13;97272.59;;;2.15;100.00
30081;BME280;16902;50.816;12.828;2024-03-08T22:48:18;97273.00;;;2.01;100.00
30081;BME280;16902;50.816;12.828;2024-03-08T22:53:20;97268.66;;;2.11;100.00
30081;BME280;16902;50.816;12.828;2024-03-08T22:58:22;97267.28;;;2.17;100.00
30081;BME280;16902;50.816;12.828;2024-03-08T23:03:24;97259.81;;;2.43;100.00
30081;BME280;16902;50.816;12.828;2024-03-08T23:08:27;97252.06;;;2.52;100.00
30081;BME280;16902;50.816;12.828;2024-03-08T23:13:32;97253.66;;;2.53;100.00
30081;BME280;16902;50.816;12.828;2024-03-08T23:18:36;97248.22;;;2.66;100.00
30081;BME280;16902;50.816;12.828;2024-03-08T23:23:39;97230.28;;;2.74;100.00
30081;BME280;16902;50.816;12.828;2024-03-08T23:28:42;97234.94;;;2.71;100.00
30081;BME280;16902;50.816;12.828;2024-03-08T23:33:46;97232.22;;;2.72;100.00
30081;BME280;16902;50.816;12.828;2024-03-08T23:38:48;97224.56;;;2.63;100.00
30081;BME280;16902;50.816;12.828;2024-03-08T23:43:51;97232.69;;;2.58;100.00
30081;BME280;16902;50.816;12.828;2024-03-08T23:48:53;97220.25;;;2.53;100.00
30081;BME280;16902;50.816;12.828;2024-03-08T23:53:55;97224.25;;;2.66;100.00
30081;BME280;16902;50.816;12.828;2024-03-08T23:58:58;97221.06;;;2.54;100.00
